sensor_id;sensor_type;location;lat;lon;timestamp;temperature;humidity
15160;DHT22;7680;48.800;9.680;2023-05-10T00:00:43;13.80;99.90
15160;DHT22;7680;48.800;9.680;2023-05-10T00:03:16;13.90;99.90
15160;DHT22;7680;48.800;9.680;2023-05-10T00:05:51;13.90;99.90
15160;DHT22;7680;48.800;9.680;2023-05-10T00:08:24;14.00;99.90
15160;DHT22;7680;48.800;9.680;2023-05-10T00:10:57;14.00;99.90
15160;DHT22;7680;48.800;9.680;2023-05-10T00:13:30;14.00;99.90
15160;DHT22;7680;48.800;9.680;2023-05-10T00:16:04;14.00;99.90
15160;DHT22;7680;48.800;9.680;2023-05-10T00:18:37;14.00;99.90
15160;DHT22;7680;48.800;9.680;2023-05-10T00:21:12;14.00;99.90
15160;DHT22;7680;48.800;9.680;2023-05-10T00:23:45;14.10;99.90
15160;DHT22;7680;48.800;9.680;2023-05-10T00:26:18;14.00;99.90
15160;DHT22;7680;48.800;9.680;2023-05-10T00:28:51;14.00;99.90
15160;DHT22;7680;48.800;9.680;2023-05-10T00:31:24;13.90;99.90
15160;DHT22;7680;48.800;9.680;2023-05-10T00:33:57;14.00;99.90
15160;DHT22;7680;48.800;9.680;2023-05-10T00:36:32;14.00;99.90
15160;DHT22;7680;48.800;9.680;2023-05-10T00:39:05;14.00;99.90
15160;DHT22;7680;48.800;9.680;2023-05-10T00:41:38;14.00;99.90
15160;DHT22;7680;48.800;9.680;2023-05-10T00:44:11;14.00;99.90
15160;DHT22;7680;48.800;9.680;2023-05-10T00:46:44;14.00;99.90
15160;DHT22;7680;48.800;9.680;2023-05-10T00:49:17;14.00;99.90
15160;DHT22;7680;48.800;9.680;2023-05-10T00:51:52;14.10;99.90
15160;DHT22;7680;48.800;9.680;2023-05-10T00:54:25;14.00;99.90
15160;DHT22;7680;48.800;9.680;2023-05-10T00:56:58;14.00;99.90
15160;DHT22;7680;48.800;9.680;2023-05-10T00:59:31;13.90;99.90
15160;DHT22;7680;48.800;9.680;2023-05-10T01:02:05;13.80;99.90
15160;DHT22;7680;48.800;9.680;2023-05-10T01:04:38;13.70;99.90
15160;DHT22;7680;48.800;9.680;2023-05-10T01:07:12;13.60;99.90
15160;DHT22;7680;48.800;9.680;2023-05-10T01:09:45;13.50;99.90
15160;DHT22;7680;48.800;9.680;2023-05-10T01:12:19;13.50;99.90
15160;DHT22;7680;48.800;9.680;2023-05-10T01:14:53;13.60;99.90
15160;DHT22;7680;48.800;9.680;2023-05-10T01:17:27;13.30;99.90
15160;DHT22;7680;48.800;9.680;2023-05-10T01:20:00;13.30;99.90
15160;DHT22;7680;48.800;9.680;2023-05-10T01:22:48;13.10;99.90
15160;DHT22;7680;48.800;9.680;2023-05-10T01:32:15;12.90;99.90
15160;DHT22;7680;48.800;9.680;2023-05-10T01:34:55;12.90;99.90
15160;DHT22;7680;48.800;9.680;2023-05-10T01:37:40;13.00;99.90
15160;DHT22;7680;48.800;9.680;2023-05-10T01:40:21;12.90;99.90
15160;DHT22;7680;48.800;9.680;2023-05-10T01:43:01;12.90;99.90
15160;DHT22;7680;48.800;9.680;2023-05-10T01:45:39;12.90;99.90
15160;DHT22;7680;48.800;9.680;2023-05-10T01:48:18;12.90;99.90
15160;DHT22;7680;48.800;9.680;2023-05-10T01:50:53;12.90;99.90
15160;DHT22;7680;48.800;9.680;2023-05-10T01:53:27;13.00;99.90
15160;DHT22;7680;48.800;9.680;2023-05-10T01:56:02;12.90;99.90
15160;DHT22;7680;48.800;9.680;2023-05-10T01:58:36;12.80;99.90
15160;DHT22;7680;48.800;9.680;2023-05-10T02:01:14;12.80;99.90
15160;DHT22;7680;48.800;9.680;2023-05-10T02:03:50;12.90;99.90
15160;DHT22;7680;48.800;9.680;2023-05-10T02:06:24;12.90;99.90
15160;DHT22;7680;48.800;9.680;2023-05-10T02:08:58;12.90;99.90
15160;DHT22;7680;48.800;9.680;2023-05-10T02:11:33;12.90;99.90
15160;DHT22;7680;48.800;9.680;2023-05-10T02:14:08;12.90;99.90
15160;DHT22;7680;48.800;9.680;2023-05-10T02:16:43;12.90;99.90
15160;DHT22;7680;48.800;9.680;2023-05-10T02:19:20;12.80;99.90
15160;DHT22;7680;48.800;9.680;2023-05-10T02:21:55;12.80;99.90
15160;DHT22;7680;48.800;9.680;2023-05-10T02:24:28;12.70;99.90
15160;DHT22;7680;48.800;9.680;2023-05-10T02:27:03;12.70;99.90
15160;DHT22;7680;48.800;9.680;2023-05-10T02:29:37;12.70;99.90
15160;DHT22;7680;48.800;9.680;2023-05-10T02:32:11;12.60;99.90
15160;DHT22;7680;48.800;9.680;2023-05-10T02:34:46;12.70;99.90
15160;DHT22;7680;48.800;9.680;2023-05-10T02:37:24;12.80;99.90
15160;DHT22;7680;48.800;9.680;2023-05-10T02:39:58;12.70;99.90
15160;DHT22;7680;48.800;9.680;2023-05-10T02:42:35;12.80;99.90
15160;DHT22;7680;48.800;9.680;2023-05-10T02:45:12;12.80;99.90
15160;DHT22;7680;48.800;9.680;2023-05-10T02:47:47;12.80;99.90
15160;DHT22;7680;48.800;9.680;2023-05-10T02:50:22;12.80;99.90
15160;DHT22;7680;48.800;9.680;2023-05-10T02:53:00;12.80;99.90
15160;DHT22;7680;48.800;9.680;2023-05-10T02:55:38;12.80;99.90
15160;DHT22;7680;48.800;9.680;2023-05-10T02:58:13;12.80;99.90
15160;DHT22;7680;48.800;9.680;2023-05-10T03:00:46;12.80;99.90
15160;DHT22;7680;48.800;9.680;2023-05-10T03:03:19;12.80;99.90
15160;DHT22;7680;48.800;9.680;2023-05-10T03:05:54;12.80;99.90
15160;DHT22;7680;48.800;9.680;2023-05-10T03:08:28;12.80;99.90
15160;DHT22;7680;48.800;9.680;2023-05-10T03:11:16;12.80;99.90
15160;DHT22;7680;48.800;9.680;2023-05-10T03:14:06;12.80;99.90
15160;DHT22;7680;48.800;9.680;2023-05-10T03:16:45;12.70;99.90
15160;DHT22;7680;48.800;9.680;2023-05-10T03:19:24;12.70;99.90
15160;DHT22;7680;48.800;9.680;2023-05-10T03:22:06;12.60;99.90
15160;DHT22;7680;48.800;9.680;2023-05-10T03:24:43;12.60;99.90
15160;DHT22;7680;48.800;9.680;2023-05-10T03:27:17;12.60;99.90
15160;DHT22;7680;48.800;9.680;2023-05-10T03:29:52;12.70;99.90
15160;DHT22;7680;48.800;9.680;2023-05-10T03:32:26;12.60;99.90
15160;DHT22;7680;48.800;9.680;2023-05-10T03:34:59;12.70;99.90
15160;DHT22;7680;48.800;9.680;2023-05-10T03:37:35;12.60;99.90
15160;DHT22;7680;48.800;9.680;2023-05-10T03:40:08;12.70;99.90
15160;DHT22;7680;48.800;9.680;2023-05-10T03:42:41;12.60;99.90
15160;DHT22;7680;48.800;9.680;2023-05-10T03:45:14;12.60;99.90
15160;DHT22;7680;48.800;9.680;2023-05-10T03:47:47;12.60;99.90
15160;DHT22;7680;48.800;9.680;2023-05-10T03:50:21;12.60;99.90
15160;DHT22;7680;48.800;9.680;2023-05-10T03:52:55;12.60;99.90
15160;DHT22;7680;48.800;9.680;2023-05-10T03:55:28;12.60;99.90
15160;DHT22;7680;48.800;9.680;2023-05-10T03:58:06;12.60;99.90
15160;DHT22;7680;48.800;9.680;2023-05-10T04:00:39;12.60;99.90
15160;DHT22;7680;48.800;9.680;2023-05-10T04:03:15;12.60;99.90
15160;DHT22;7680;48.800;9.680;2023-05-10T04:05:48;12.60;99.90
15160;DHT22;7680;48.800;9.680;2023-05-10T04:08:23;12.70;99.90
15160;DHT22;7680;48.800;9.680;2023-05-10T04:11:05;12.70;99.90
15160;DHT22;7680;48.800;9.680;2023-05-10T04:13:39;12.70;99.90
15160;DHT22;7680;48.800;9.680;2023-05-10T04:16:12;12.70;99.90
15160;DHT22;7680;48.800;9.680;2023-05-10T04:18:45;12.60;99.90
15160;DHT22;7680;48.800;9.680;2023-05-10T04:21:18;12.70;99.90
15160;DHT22;7680;48.800;9.680;2023-05-10T04:23:53;12.70;99.90
15160;DHT22;7680;48.800;9.680;2023-05-10T04:26:26;12.80;99.90
15160;DHT22;7680;48.800;9.680;2023-05-10T04:28:59;12.80;99.90
15160;DHT22;7680;48.800;9.680;2023-05-10T04:31:32;12.80;99.90
15160;DHT22;7680;48.800;9.680;2023-05-10T04:34:07;12.80;99.90
15160;DHT22;7680;48.800;9.680;2023-05-10T04:36:40;12.80;99.90
15160;DHT22;7680;48.800;9.680;2023-05-10T04:39:15;12.90;99.90
15160;DHT22;7680;48.800;9.680;2023-05-10T04:41:48;12.90;99.90
15160;DHT22;7680;48.800;9.680;2023-05-10T04:44:20;12.90;99.90
15160;DHT22;7680;48.800;9.680;2023-05-10T04:46:53;12.90;99.90
15160;DHT22;7680;48.800;9.680;2023-05-10T04:49:26;13.00;99.90
15160;DHT22;7680;48.800;9.680;2023-05-10T04:51:59;13.00;99.90
15160;DHT22;7680;48.800;9.680;2023-05-10T04:54:34;13.10;99.90
15160;DHT22;7680;48.800;9.680;2023-05-10T04:57:07;13.10;99.90
15160;DHT22;7680;48.800;9.680;2023-05-10T04:59:40;13.10;99.90
15160;DHT22;7680;48.800;9.680;2023-05-10T05:02:14;13.20;99.90
15160;DHT22;7680;48.800;9.680;2023-05-10T05:04:47;13.20;99.90
15160;DHT22;7680;48.800;9.680;2023-05-10T05:07:20;13.20;99.90
15160;DHT22;7680;48.800;9.680;2023-05-10T05:09:55;13.20;99.90
15160;DHT22;7680;48.800;9.680;2023-05-10T05:12:28;13.20;99.90
15160;DHT22;7680;48.800;9.680;2023-05-10T05:15:01;13.20;99.90
15160;DHT22;7680;48.800;9.680;2023-05-10T05:17:34;13.20;99.90
15160;DHT22;7680;48.800;9.680;2023-05-10T05:20:08;13.20;99.90
15160;DHT22;7680;48.800;9.680;2023-05-10T05:22:42;13.20;99.90
15160;DHT22;7680;48.800;9.680;2023-05-10T05:25:16;13.20;99.90
15160;DHT22;7680;48.800;9.680;2023-05-10T05:27:49;13.20;99.90
15160;DHT22;7680;48.800;9.680;2023-05-10T05:30:22;13.20;99.90
15160;DHT22;7680;48.800;9.680;2023-05-10T05:32:55;13.20;99.90
15160;DHT22;7680;48.800;9.680;2023-05-10T05:35:28;13.20;99.90
15160;DHT22;7680;48.800;9.680;2023-05-10T05:38:01;13.20;99.90
15160;DHT22;7680;48.800;9.680;2023-05-10T05:40:36;13.30;99.90
15160;DHT22;7680;48.800;9.680;2023-05-10T05:43:09;13.30;99.90
15160;DHT22;7680;48.800;9.680;2023-05-10T05:45:42;13.30;99.90
15160;DHT22;7680;48.800;9.680;2023-05-10T05:48:15;13.30;99.90
15160;DHT22;7680;48.800;9.680;2023-05-10T05:50:48;13.40;99.90
15160;DHT22;7680;48.800;9.680;2023-05-10T05:53:21;13.40;99.90
15160;DHT22;7680;48.800;9.680;2023-05-10T05:55:56;13.40;99.90
15160;DHT22;7680;48.800;9.680;2023-05-10T05:58:30;13.40;99.90
15160;DHT22;7680;48.800;9.680;2023-05-10T06:01:03;13.40;99.90
15160;DHT22;7680;48.800;9.680;2023-05-10T06:03:36;13.50;99.90
15160;DHT22;7680;48.800;9.680;2023-05-10T06:06:09;13.50;99.90
15160;DHT22;7680;48.800;9.680;2023-05-10T06:08:42;13.50;99.90
15160;DHT22;7680;48.800;9.680;2023-05-10T06:11:16;13.60;99.90
15160;DHT22;7680;48.800;9.680;2023-05-10T06:13:50;13.60;99.90
15160;DHT22;7680;48.800;9.680;2023-05-10T06:16:23;13.50;99.90
15160;DHT22;7680;48.800;9.680;2023-05-10T06:18:56;13.60;99.90
15160;DHT22;7680;48.800;9.680;2023-05-10T06:21:29;13.60;99.90
15160;DHT22;7680;48.800;9.680;2023-05-10T06:24:02;13.50;99.90
15160;DHT22;7680;48.800;9.680;2023-05-10T06:26:38;13.50;99.90
15160;DHT22;7680;48.800;9.680;2023-05-10T06:29:11;13.60;99.90
15160;DHT22;7680;48.800;9.680;2023-05-10T06:31:44;13.70;99.90
15160;DHT22;7680;48.800;9.680;2023-05-10T06:34:17;13.70;99.90
15160;DHT22;7680;48.800;9.680;2023-05-10T06:36:50;13.70;99.90
15160;DHT22;7680;48.800;9.680;2023-05-10T06:39:23;13.70;99.90
15160;DHT22;7680;48.800;9.680;2023-05-10T06:41:58;13.70;99.90
15160;DHT22;7680;48.800;9.680;2023-05-10T06:44:31;13.60;99.90
15160;DHT22;7680;48.800;9.680;2023-05-10T06:47:04;13.60;99.90
15160;DHT22;7680;48.800;9.680;2023-05-10T06:49:37;13.60;99.90
15160;DHT22;7680;48.800;9.680;2023-05-10T06:52:10;13.60;99.90
15160;DHT22;7680;48.800;9.680;2023-05-10T06:54:43;13.50;99.90
15160;DHT22;7680;48.800;9.680;2023-05-10T06:57:17;13.50;99.90
15160;DHT22;7680;48.800;9.680;2023-05-10T07:00:03;13.50;99.90
15160;DHT22;7680;48.800;9.680;2023-05-10T07:02:37;13.50;99.90
15160;DHT22;7680;48.800;9.680;2023-05-10T07:05:10;13.50;99.90
15160;DHT22;7680;48.800;9.680;2023-05-10T07:07:43;13.40;99.90
15160;DHT22;7680;48.800;9.680;2023-05-10T07:10:16;13.50;99.90
15160;DHT22;7680;48.800;9.680;2023-05-10T07:12:50;13.50;99.90
15160;DHT22;7680;48.800;9.680;2023-05-10T07:15:24;13.50;99.90
15160;DHT22;7680;48.800;9.680;2023-05-10T07:17:56;13.50;99.90
15160;DHT22;7680;48.800;9.680;2023-05-10T07:20:30;13.50;99.90
15160;DHT22;7680;48.800;9.680;2023-05-10T07:23:03;13.60;99.90
15160;DHT22;7680;48.800;9.680;2023-05-10T07:25:36;13.60;99.90
15160;DHT22;7680;48.800;9.680;2023-05-10T07:28:10;13.60;99.90
15160;DHT22;7680;48.800;9.680;2023-05-10T07:30:43;13.60;99.90
15160;DHT22;7680;48.800;9.680;2023-05-10T07:33:17;13.60;99.90
15160;DHT22;7680;48.800;9.680;2023-05-10T07:35:50;13.70;99.90
15160;DHT22;7680;48.800;9.680;2023-05-10T07:38:23;13.70;99.90
15160;DHT22;7680;48.800;9.680;2023-05-10T07:40:56;13.70;99.90
15160;DHT22;7680;48.800;9.680;2023-05-10T07:43:30;13.70;99.90
15160;DHT22;7680;48.800;9.680;2023-05-10T07:46:03;13.80;99.90
15160;DHT22;7680;48.800;9.680;2023-05-10T07:48:36;13.80;99.90
15160;DHT22;7680;48.800;9.680;2023-05-10T07:51:09;13.70;99.90
15160;DHT22;7680;48.800;9.680;2023-05-10T07:53:42;13.70;99.90
15160;DHT22;7680;48.800;9.680;2023-05-10T07:56:23;13.90;99.90
15160;DHT22;7680;48.800;9.680;2023-05-10T07:59:00;14.10;99.90
15160;DHT22;7680;48.800;9.680;2023-05-10T08:01:35;14.30;99.90
15160;DHT22;7680;48.800;9.680;2023-05-10T08:04:08;14.50;99.90
15160;DHT22;7680;48.800;9.680;2023-05-10T08:06:41;14.60;99.90
15160;DHT22;7680;48.800;9.680;2023-05-10T08:09:14;14.70;99.90
15160;DHT22;7680;48.800;9.680;2023-05-10T08:11:49;14.70;99.90
15160;DHT22;7680;48.800;9.680;2023-05-10T08:14:23;14.80;99.90
15160;DHT22;7680;48.800;9.680;2023-05-10T08:16:56;14.90;99.90
15160;DHT22;7680;48.800;9.680;2023-05-10T08:19:29;14.90;99.90
15160;DHT22;7680;48.800;9.680;2023-05-10T08:22:02;15.00;99.90
15160;DHT22;7680;48.800;9.680;2023-05-10T08:24:35;15.20;99.90
15160;DHT22;7680;48.800;9.680;2023-05-10T08:27:09;15.30;99.90
15160;DHT22;7680;48.800;9.680;2023-05-10T08:29:44;15.40;99.90
15160;DHT22;7680;48.800;9.680;2023-05-10T08:32:21;15.60;99.90
15160;DHT22;7680;48.800;9.680;2023-05-10T08:34:54;15.50;99.90
15160;DHT22;7680;48.800;9.680;2023-05-10T08:37:29;15.50;99.90
15160;DHT22;7680;48.800;9.680;2023-05-10T08:40:04;15.40;99.90
15160;DHT22;7680;48.800;9.680;2023-05-10T08:42:40;15.40;99.90
15160;DHT22;7680;48.800;9.680;2023-05-10T08:45:18;15.50;99.90
15160;DHT22;7680;48.800;9.680;2023-05-10T08:47:52;15.50;99.90
15160;DHT22;7680;48.800;9.680;2023-05-10T08:50:25;15.30;99.90
15160;DHT22;7680;48.800;9.680;2023-05-10T08:53:00;15.20;99.90
15160;DHT22;7680;48.800;9.680;2023-05-10T08:55:37;15.20;99.90
15160;DHT22;7680;48.800;9.680;2023-05-10T08:58:11;15.20;99.90
15160;DHT22;7680;48.800;9.680;2023-05-10T09:00:46;15.10;99.90
15160;DHT22;7680;48.800;9.680;2023-05-10T09:03:20;15.10;99.90
15160;DHT22;7680;48.800;9.680;2023-05-10T09:05:54;15.20;99.90
15160;DHT22;7680;48.800;9.680;2023-05-10T09:08:27;15.20;99.90
15160;DHT22;7680;48.800;9.680;2023-05-10T09:11:02;15.20;99.90
15160;DHT22;7680;48.800;9.680;2023-05-10T09:13:35;15.10;99.90
15160;DHT22;7680;48.800;9.680;2023-05-10T09:16:10;15.00;99.90
15160;DHT22;7680;48.800;9.680;2023-05-10T09:18:52;15.00;99.90
15160;DHT22;7680;48.800;9.680;2023-05-10T09:21:25;15.10;99.90
15160;DHT22;7680;48.800;9.680;2023-05-10T09:24:02;15.20;99.90
15160;DHT22;7680;48.800;9.680;2023-05-10T09:26:45;15.20;99.90
15160;DHT22;7680;48.800;9.680;2023-05-10T09:29:19;15.30;99.90
15160;DHT22;7680;48.800;9.680;2023-05-10T09:31:54;15.20;99.90
15160;DHT22;7680;48.800;9.680;2023-05-10T09:34:29;15.20;99.90
15160;DHT22;7680;48.800;9.680;2023-05-10T09:37:02;15.20;99.90
15160;DHT22;7680;48.800;9.680;2023-05-10T09:39:37;15.20;99.90
15160;DHT22;7680;48.800;9.680;2023-05-10T09:42:10;15.20;99.90
15160;DHT22;7680;48.800;9.680;2023-05-10T09:44:43;15.20;99.90
15160;DHT22;7680;48.800;9.680;2023-05-10T09:47:20;15.20;99.90
15160;DHT22;7680;48.800;9.680;2023-05-10T09:49:54;15.40;99.90
15160;DHT22;7680;48.800;9.680;2023-05-10T09:52:29;15.50;99.90
15160;DHT22;7680;48.800;9.680;2023-05-10T09:55:03;15.70;99.90
15160;DHT22;7680;48.800;9.680;2023-05-10T09:57:36;15.70;99.90
15160;DHT22;7680;48.800;9.680;2023-05-10T10:00:10;15.70;99.90
15160;DHT22;7680;48.800;9.680;2023-05-10T10:02:56;15.80;99.90
15160;DHT22;7680;48.800;9.680;2023-05-10T10:05:32;15.90;99.90
15160;DHT22;7680;48.800;9.680;2023-05-10T10:08:06;15.90;99.90
15160;DHT22;7680;48.800;9.680;2023-05-10T10:10:39;16.10;99.90
15160;DHT22;7680;48.800;9.680;2023-05-10T10:13:13;16.10;99.90
15160;DHT22;7680;48.800;9.680;2023-05-10T10:15:47;16.10;99.90
15160;DHT22;7680;48.800;9.680;2023-05-10T10:18:24;16.10;99.90
15160;DHT22;7680;48.800;9.680;2023-05-10T10:20:59;16.10;99.90
15160;DHT22;7680;48.800;9.680;2023-05-10T10:23:32;16.10;99.90
15160;DHT22;7680;48.800;9.680;2023-05-10T10:26:05;16.20;99.90
15160;DHT22;7680;48.800;9.680;2023-05-10T10:31:36;16.10;99.90
15160;DHT22;7680;48.800;9.680;2023-05-10T10:34:25;16.10;99.90
15160;DHT22;7680;48.800;9.680;2023-05-10T10:37:04;16.10;99.90
15160;DHT22;7680;48.800;9.680;2023-05-10T10:39:38;16.10;99.90
15160;DHT22;7680;48.800;9.680;2023-05-10T10:42:11;16.10;99.90
15160;DHT22;7680;48.800;9.680;2023-05-10T10:44:44;16.10;99.90
15160;DHT22;7680;48.800;9.680;2023-05-10T10:47:23;16.20;99.90
15160;DHT22;7680;48.800;9.680;2023-05-10T10:50:04;16.30;99.90
15160;DHT22;7680;48.800;9.680;2023-05-10T10:52:39;16.30;99.90
15160;DHT22;7680;48.800;9.680;2023-05-10T10:55:14;16.30;99.90
15160;DHT22;7680;48.800;9.680;2023-05-10T10:57:51;16.40;99.90
15160;DHT22;7680;48.800;9.680;2023-05-10T11:00:32;16.50;99.90
15160;DHT22;7680;48.800;9.680;2023-05-10T11:03:08;16.60;99.90
15160;DHT22;7680;48.800;9.680;2023-05-10T11:05:47;16.60;99.90
15160;DHT22;7680;48.800;9.680;2023-05-10T11:08:26;16.60;99.90
15160;DHT22;7680;48.800;9.680;2023-05-10T11:11:05;16.60;99.90
15160;DHT22;7680;48.800;9.680;2023-05-10T11:13:43;16.60;99.90
15160;DHT22;7680;48.800;9.680;2023-05-10T11:16:22;16.70;99.90
15160;DHT22;7680;48.800;9.680;2023-05-10T11:19:01;16.80;99.90
15160;DHT22;7680;48.800;9.680;2023-05-10T11:21:45;16.80;99.90
15160;DHT22;7680;48.800;9.680;2023-05-10T11:24:21;16.50;99.90
15160;DHT22;7680;48.800;9.680;2023-05-10T11:26:55;16.50;99.90
15160;DHT22;7680;48.800;9.680;2023-05-10T11:29:29;16.30;99.90
15160;DHT22;7680;48.800;9.680;2023-05-10T11:32:02;16.20;99.90
15160;DHT22;7680;48.800;9.680;2023-05-10T11:34:39;16.30;99.90
15160;DHT22;7680;48.800;9.680;2023-05-10T11:37:14;16.20;99.90
15160;DHT22;7680;48.800;9.680;2023-05-10T11:39:47;16.20;99.90
15160;DHT22;7680;48.800;9.680;2023-05-10T11:42:20;16.30;99.90
15160;DHT22;7680;48.800;9.680;2023-05-10T11:44:53;16.20;99.90
15160;DHT22;7680;48.800;9.680;2023-05-10T11:47:26;16.20;99.90
15160;DHT22;7680;48.800;9.680;2023-05-10T11:49:59;16.20;99.90
15160;DHT22;7680;48.800;9.680;2023-05-10T11:52:36;16.30;99.90
15160;DHT22;7680;48.800;9.680;2023-05-10T11:55:09;16.40;99.90
15160;DHT22;7680;48.800;9.680;2023-05-10T11:57:42;16.50;99.90
15160;DHT22;7680;48.800;9.680;2023-05-10T12:00:17;16.60;99.90
15160;DHT22;7680;48.800;9.680;2023-05-10T12:02:51;16.80;99.90
15160;DHT22;7680;48.800;9.680;2023-05-10T12:05:24;16.90;99.90
15160;DHT22;7680;48.800;9.680;2023-05-10T12:08:12;17.20;99.90
15160;DHT22;7680;48.800;9.680;2023-05-10T12:10:46;17.20;99.90
15160;DHT22;7680;48.800;9.680;2023-05-10T12:13:20;17.10;99.90
15160;DHT22;7680;48.800;9.680;2023-05-10T12:15:53;17.10;99.90
15160;DHT22;7680;48.800;9.680;2023-05-10T12:18:26;17.10;99.90
15160;DHT22;7680;48.800;9.680;2023-05-10T12:21:03;17.00;99.90
15160;DHT22;7680;48.800;9.680;2023-05-10T12:23:38;17.10;99.90
15160;DHT22;7680;48.800;9.680;2023-05-10T12:26:12;16.90;99.90
15160;DHT22;7680;48.800;9.680;2023-05-10T12:28:45;16.60;99.90
15160;DHT22;7680;48.800;9.680;2023-05-10T12:31:18;16.70;99.90
15160;DHT22;7680;48.800;9.680;2023-05-10T12:33:51;16.70;99.90
15160;DHT22;7680;48.800;9.680;2023-05-10T12:36:24;16.50;99.90
15160;DHT22;7680;48.800;9.680;2023-05-10T12:39:03;16.50;99.90
15160;DHT22;7680;48.800;9.680;2023-05-10T12:41:37;16.50;99.90
15160;DHT22;7680;48.800;9.680;2023-05-10T12:44:13;16.40;99.90
15160;DHT22;7680;48.800;9.680;2023-05-10T12:46:46;16.20;99.90
15160;DHT22;7680;48.800;9.680;2023-05-10T12:49:19;16.00;99.90
15160;DHT22;7680;48.800;9.680;2023-05-10T12:51:52;15.90;99.90
15160;DHT22;7680;48.800;9.680;2023-05-10T12:54:26;15.70;99.90
15160;DHT22;7680;48.800;9.680;2023-05-10T12:56:59;15.50;99.90
15160;DHT22;7680;48.800;9.680;2023-05-10T12:59:32;15.30;99.90
15160;DHT22;7680;48.800;9.680;2023-05-10T13:02:09;15.10;99.90
15160;DHT22;7680;48.800;9.680;2023-05-10T13:04:42;14.90;99.90
15160;DHT22;7680;48.800;9.680;2023-05-10T13:07:15;14.90;99.90
15160;DHT22;7680;48.800;9.680;2023-05-10T13:09:49;14.80;99.90
15160;DHT22;7680;48.800;9.680;2023-05-10T13:12:22;14.80;99.90
15160;DHT22;7680;48.800;9.680;2023-05-10T13:14:55;14.70;99.90
15160;DHT22;7680;48.800;9.680;2023-05-10T13:17:28;14.60;99.90
15160;DHT22;7680;48.800;9.680;2023-05-10T13:20:05;14.50;99.90
15160;DHT22;7680;48.800;9.680;2023-05-10T13:22:39;14.40;99.90
15160;DHT22;7680;48.800;9.680;2023-05-10T13:25:13;14.30;99.90
15160;DHT22;7680;48.800;9.680;2023-05-10T13:27:46;14.20;99.90
15160;DHT22;7680;48.800;9.680;2023-05-10T13:30:19;14.20;99.90
15160;DHT22;7680;48.800;9.680;2023-05-10T13:32:52;14.20;99.90
15160;DHT22;7680;48.800;9.680;2023-05-10T13:35:25;14.30;99.90
15160;DHT22;7680;48.800;9.680;2023-05-10T13:37:58;14.40;99.90
15160;DHT22;7680;48.800;9.680;2023-05-10T13:40:33;14.50;99.90
15160;DHT22;7680;48.800;9.680;2023-05-10T13:43:06;14.50;99.90
15160;DHT22;7680;48.800;9.680;2023-05-10T13:45:39;14.50;99.90
15160;DHT22;7680;48.800;9.680;2023-05-10T13:48:12;14.60;99.90
15160;DHT22;7680;48.800;9.680;2023-05-10T13:50:45;14.60;99.90
15160;DHT22;7680;48.800;9.680;2023-05-10T13:53:18;14.70;99.90
15160;DHT22;7680;48.800;9.680;2023-05-10T13:55:52;14.70;99.90
15160;DHT22;7680;48.800;9.680;2023-05-10T13:58:25;14.80;99.90
15160;DHT22;7680;48.800;9.680;2023-05-10T14:00:58;14.90;99.90
15160;DHT22;7680;48.800;9.680;2023-05-10T14:03:31;15.00;99.90
15160;DHT22;7680;48.800;9.680;2023-05-10T14:06:05;15.10;99.90
15160;DHT22;7680;48.800;9.680;2023-05-10T14:08:38;15.20;99.90
15160;DHT22;7680;48.800;9.680;2023-05-10T14:11:13;15.20;99.90
15160;DHT22;7680;48.800;9.680;2023-05-10T14:13:46;15.30;99.90
15160;DHT22;7680;48.800;9.680;2023-05-10T14:16:19;15.40;99.90
15160;DHT22;7680;48.800;9.680;2023-05-10T14:18:52;15.40;99.90
15160;DHT22;7680;48.800;9.680;2023-05-10T14:21:26;15.40;99.90
15160;DHT22;7680;48.800;9.680;2023-05-10T14:24:00;15.30;99.90
15160;DHT22;7680;48.800;9.680;2023-05-10T14:26:34;15.20;99.90
15160;DHT22;7680;48.800;9.680;2023-05-10T14:29:07;15.20;99.90
15160;DHT22;7680;48.800;9.680;2023-05-10T14:31:43;15.20;99.90
15160;DHT22;7680;48.800;9.680;2023-05-10T14:34:16;15.20;99.90
15160;DHT22;7680;48.800;9.680;2023-05-10T14:36:49;15.30;99.90
15160;DHT22;7680;48.800;9.680;2023-05-10T14:39:22;15.20;99.90
15160;DHT22;7680;48.800;9.680;2023-05-10T14:41:56;15.30;99.90
15160;DHT22;7680;48.800;9.680;2023-05-10T14:44:30;15.30;99.90
15160;DHT22;7680;48.800;9.680;2023-05-10T14:47:03;15.30;99.90
15160;DHT22;7680;48.800;9.680;2023-05-10T14:49:36;15.30;99.90
15160;DHT22;7680;48.800;9.680;2023-05-10T14:52:09;15.40;99.90
15160;DHT22;7680;48.800;9.680;2023-05-10T14:54:43;15.50;99.90
15160;DHT22;7680;48.800;9.680;2023-05-10T14:57:18;15.50;99.90
15160;DHT22;7680;48.800;9.680;2023-05-10T14:59:51;15.40;99.90
15160;DHT22;7680;48.800;9.680;2023-05-10T15:02:24;15.50;99.90
15160;DHT22;7680;48.800;9.680;2023-05-10T15:04:58;15.40;99.90
15160;DHT22;7680;48.800;9.680;2023-05-10T15:07:31;15.50;99.90
15160;DHT22;7680;48.800;9.680;2023-05-10T15:10:05;15.50;99.90
15160;DHT22;7680;48.800;9.680;2023-05-10T15:12:41;15.50;99.90
15160;DHT22;7680;48.800;9.680;2023-05-10T15:15:14;15.50;99.90
15160;DHT22;7680;48.800;9.680;2023-05-10T15:17:47;15.60;99.90
15160;DHT22;7680;48.800;9.680;2023-05-10T15:20:20;15.60;99.90
15160;DHT22;7680;48.800;9.680;2023-05-10T15:22:53;15.60;99.90
15160;DHT22;7680;48.800;9.680;2023-05-10T15:25:26;15.60;99.90
15160;DHT22;7680;48.800;9.680;2023-05-10T15:28:01;15.60;99.90
15160;DHT22;7680;48.800;9.680;2023-05-10T15:30:35;15.60;99.90
15160;DHT22;7680;48.800;9.680;2023-05-10T15:33:08;15.60;99.90
15160;DHT22;7680;48.800;9.680;2023-05-10T15:35:41;15.60;99.90
15160;DHT22;7680;48.800;9.680;2023-05-10T15:38:14;15.60;99.90
15160;DHT22;7680;48.800;9.680;2023-05-10T15:40:46;15.50;99.90
15160;DHT22;7680;48.800;9.680;2023-05-10T15:43:21;15.60;99.90
15160;DHT22;7680;48.800;9.680;2023-05-10T15:45:54;15.60;99.90
15160;DHT22;7680;48.800;9.680;2023-05-10T15:48:27;15.50;99.90
15160;DHT22;7680;48.800;9.680;2023-05-10T15:51:03;15.50;99.90
15160;DHT22;7680;48.800;9.680;2023-05-10T15:53:36;15.60;99.90
15160;DHT22;7680;48.800;9.680;2023-05-10T15:56:14;15.50;99.90
15160;DHT22;7680;48.800;9.680;2023-05-10T15:58:49;15.50;99.90
15160;DHT22;7680;48.800;9.680;2023-05-10T16:01:22;15.60;99.90
15160;DHT22;7680;48.800;9.680;2023-05-10T16:03:55;15.50;99.90
15160;DHT22;7680;48.800;9.680;2023-05-10T16:06:28;15.50;99.90
15160;DHT22;7680;48.800;9.680;2023-05-10T16:09:01;15.40;99.90
15160;DHT22;7680;48.800;9.680;2023-05-10T16:11:35;15.40;99.90
15160;DHT22;7680;48.800;9.680;2023-05-10T16:14:09;15.50;99.90
15160;DHT22;7680;48.800;9.680;2023-05-10T16:16:42;15.50;99.90
15160;DHT22;7680;48.800;9.680;2023-05-10T16:19:15;15.40;99.90
15160;DHT22;7680;48.800;9.680;2023-05-10T16:21:49;15.40;99.90
15160;DHT22;7680;48.800;9.680;2023-05-10T16:24:22;15.50;99.90
15160;DHT22;7680;48.800;9.680;2023-05-10T16:26:55;15.40;99.90
15160;DHT22;7680;48.800;9.680;2023-05-10T16:29:29;15.40;99.90
15160;DHT22;7680;48.800;9.680;2023-05-10T16:32:02;15.40;99.90
15160;DHT22;7680;48.800;9.680;2023-05-10T16:34:35;15.40;99.90
15160;DHT22;7680;48.800;9.680;2023-05-10T16:37:08;15.40;99.90
15160;DHT22;7680;48.800;9.680;2023-05-10T16:39:41;15.40;99.90